createdAt,value
2019-02-03T00:01:28.415Z,73.97
2019-02-03T00:04:07.727Z,71.23
2019-02-03T00:06:47.760Z,74.37
2019-02-03T00:09:27.672Z,74.10
2019-02-03T00:12:07.059Z,71.63
2019-02-03T00:14:47.026Z,72.67
2019-02-03T00:17:26.237Z,72.40
2019-02-03T00:20:06.243Z,71.20
2019-02-03T00:22:45.483Z,67.30
2019-02-03T00:25:25.453Z,72.60
2019-02-03T00:28:05.405Z,66.60
2019-02-03T00:30:45.467Z,74.73
2019-02-03T00:33:24.719Z,73.50
2019-02-03T00:36:04.739Z,74.87
2019-02-03T00:38:45.142Z,72.07
2019-02-03T00:41:25.056Z,75.50
2019-02-03T00:44:05.008Z,72.93
2019-02-03T00:46:45.276Z,74.77
2019-02-03T00:49:25.323Z,69.97
2019-02-03T00:52:04.433Z,74.13
2019-02-03T00:54:44.541Z,72.30
2019-02-03T00:57:23.927Z,74.43
2019-02-03T01:00:03.244Z,70.90
2019-02-03T01:02:43.116Z,71.00
2019-02-03T01:05:23.118Z,74.97
2019-02-03T01:08:03.193Z,72.40
2019-02-03T01:10:43.467Z,75.33
2019-02-03T01:13:22.592Z,71.80
2019-02-03T01:16:02.623Z,71.90
2019-02-03T01:18:42.677Z,77.83
2019-02-03T01:21:22.012Z,70.80
2019-02-03T01:24:02.238Z,66.77
2019-02-03T01:26:42.152Z,70.40
2019-02-03T01:29:21.329Z,72.53
2019-02-03T01:32:00.422Z,69.30
2019-02-03T01:34:40.450Z,70.77
2019-02-03T01:37:24.056Z,71.67
2019-02-03T01:40:03.327Z,65.37
2019-02-03T01:42:43.154Z,68.00
2019-02-03T01:45:23.220Z,67.20
2019-02-03T01:48:02.273Z,69.90
2019-02-03T01:50:41.338Z,72.63
2019-02-03T01:53:20.496Z,66.97
2019-02-03T01:56:00.607Z,67.93
2019-02-03T01:58:40.634Z,67.27
2019-02-03T02:01:20.744Z,68.10
2019-02-03T02:03:59.889Z,63.90
2019-02-03T02:06:39.017Z,62.87
2019-02-03T02:09:18.863Z,65.10
2019-02-03T02:11:58.937Z,66.00
2019-02-03T02:14:38.197Z,65.50
2019-02-03T02:17:18.215Z,65.10
2019-02-03T02:19:57.264Z,63.30
2019-02-03T02:22:37.531Z,64.00
2019-02-03T02:25:17.408Z,67.43
2019-02-03T02:27:57.365Z,63.67
2019-02-03T02:30:37.359Z,62.97
2019-02-03T02:33:17.448Z,65.47
2019-02-03T02:35:56.543Z,65.33
2019-02-03T02:38:36.666Z,61.50
2019-02-03T02:41:15.931Z,63.60
2019-02-03T02:43:55.864Z,61.57
2019-02-03T02:46:35.970Z,61.27
2019-02-03T02:49:15.080Z,60.50
2019-02-03T02:51:55.072Z,60.30
2019-02-03T02:54:35.129Z,61.40
2019-02-03T02:57:14.188Z,61.53
2019-02-03T02:59:54.398Z,64.90
2019-02-03T03:02:34.299Z,68.00
2019-02-03T03:05:14.297Z,64.27
2019-02-03T03:07:53.417Z,68.70
2019-02-03T03:10:37.352Z,68.80
2019-02-03T03:13:16.727Z,63.80
2019-02-03T03:15:56.703Z,65.53
2019-02-03T03:18:36.547Z,67.60
2019-02-03T03:21:15.700Z,72.10
2019-02-03T03:23:55.187Z,64.40
2019-02-03T03:26:35.032Z,69.13
2019-02-03T03:29:14.214Z,71.30
2019-02-03T03:31:54.443Z,68.73
2019-02-03T03:34:34.069Z,68.47
2019-02-03T03:37:13.224Z,75.87
2019-02-03T03:39:52.312Z,70.87
2019-02-03T03:42:32.552Z,70.47
2019-02-03T03:45:11.764Z,70.50
2019-02-03T03:47:51.839Z,69.30
2019-02-03T03:50:31.821Z,67.67
2019-02-03T03:53:11.161Z,69.90
2019-02-03T03:55:50.331Z,65.60
2019-02-03T03:58:30.285Z,70.97
2019-02-03T04:01:10.314Z,67.90
2019-02-03T04:03:50.338Z,73.27
2019-02-03T04:06:30.504Z,69.30
2019-02-03T04:09:09.612Z,69.93
2019-02-03T04:11:49.750Z,66.67
2019-02-03T04:14:29.782Z,68.60
2019-02-03T04:17:09.812Z,65.43
2019-02-03T04:19:49.932Z,66.27
2019-02-03T04:22:30.010Z,67.87
2019-02-03T04:25:09.248Z,65.07
2019-02-03T04:27:48.402Z,68.40
2019-02-03T04:30:28.384Z,68.53
2019-02-03T04:33:07.595Z,68.43
2019-02-03T04:35:46.709Z,67.17
2019-02-03T04:38:26.745Z,65.87
2019-02-03T04:41:07.540Z,65.57
2019-02-03T04:43:46.615Z,62.77
2019-02-03T04:46:26.709Z,63.23
2019-02-03T04:49:06.371Z,61.17
2019-02-03T04:51:46.109Z,64.60
2019-02-03T04:54:26.163Z,62.47
2019-02-03T04:57:05.418Z,65.10
2019-02-03T04:59:45.423Z,65.63
2019-02-03T05:02:25.568Z,65.93
2019-02-03T05:05:05.560Z,64.47
2019-02-03T05:07:44.628Z,65.63
2019-02-03T05:10:24.638Z,64.03
2019-02-03T05:13:03.743Z,65.53
2019-02-03T05:15:42.883Z,64.03
2019-02-03T05:18:23.065Z,63.67
2019-02-03T05:21:03.061Z,62.40
2019-02-03T05:23:42.892Z,60.33
2019-02-03T05:26:23.203Z,58.63
2019-02-03T05:29:03.197Z,57.27
2019-02-03T05:31:43.132Z,59.57
2019-02-03T05:34:23.208Z,60.03
2019-02-03T05:37:03.272Z,57.23
2019-02-03T05:39:42.543Z,61.57
2019-02-03T05:42:22.468Z,60.00
2019-02-03T05:45:01.659Z,59.10
2019-02-03T05:47:41.629Z,58.17
2019-02-03T05:50:21.864Z,58.43
2019-02-03T05:53:01.666Z,58.13
2019-02-03T05:55:41.679Z,63.80
2019-02-03T05:58:21.678Z,58.80
2019-02-03T06:01:01.586Z,59.43
2019-02-03T06:03:41.519Z,58.00
2019-02-03T06:06:21.606Z,59.70
2019-02-03T06:09:00.910Z,60.30
2019-02-03T06:11:40.864Z,60.37
2019-02-03T06:14:20.850Z,58.87
2019-02-03T06:17:00.823Z,59.53
2019-02-03T06:19:41.000Z,62.50
2019-02-03T06:22:20.958Z,60.77
2019-02-03T06:25:00.043Z,63.77
2019-02-03T06:27:39.277Z,63.90
2019-02-03T06:30:19.503Z,58.33
2019-02-03T06:32:59.556Z,63.70
2019-02-03T06:35:41.643Z,62.70
2019-02-03T06:38:21.548Z,61.77
2019-02-03T06:41:00.686Z,60.70
2019-02-03T06:43:40.684Z,55.90
2019-02-03T06:46:22.715Z,60.60
2019-02-03T06:49:02.687Z,55.93
2019-02-03T06:51:42.320Z,54.90
2019-02-03T06:54:21.488Z,56.87
2019-02-03T06:57:00.794Z,56.27
2019-02-03T07:02:42.864Z,56.87
2019-02-03T07:05:22.248Z,55.10
2019-02-03T07:08:01.490Z,54.10
2019-02-03T07:10:41.356Z,56.47
2019-02-03T07:13:20.473Z,53.13
2019-02-03T07:19:39.898Z,50.70
2019-02-03T07:22:19.999Z,53.73
2019-02-03T07:25:00.102Z,49.93
2019-02-03T07:27:40.070Z,51.93
2019-02-03T07:30:19.272Z,50.47
2019-02-03T07:32:58.452Z,49.00
2019-02-03T07:35:37.611Z,47.90
2019-02-03T07:38:17.762Z,46.10
2019-02-03T07:40:56.960Z,49.27
2019-02-03T07:43:36.167Z,46.60
2019-02-03T07:46:16.223Z,51.60
2019-02-03T07:48:55.372Z,46.57
2019-02-03T07:51:35.008Z,49.90
2019-02-03T07:54:14.882Z,45.10
2019-02-03T07:56:55.034Z,38.03
2019-02-03T07:59:34.229Z,37.60
2019-02-03T08:02:13.329Z,33.53
2019-02-03T08:04:53.501Z,37.50
2019-02-03T08:07:33.506Z,36.17
2019-02-03T08:10:23.826Z,35.17
2019-02-03T08:12:53.866Z,33.10
2019-02-03T08:15:33.840Z,37.97
2019-02-03T08:18:13.776Z,36.13
2019-02-03T08:20:53.011Z,28.13
2019-02-03T08:23:32.227Z,31.17
2019-02-03T08:26:12.197Z,27.43
2019-02-03T08:28:51.363Z,27.40
2019-02-03T08:31:31.258Z,28.60
2019-02-03T08:34:11.314Z,32.87
2019-02-03T08:36:51.495Z,27.70
2019-02-03T08:39:31.389Z,25.43
2019-02-03T08:42:11.638Z,26.90
2019-02-03T08:44:50.871Z,32.27
2019-02-03T08:47:30.809Z,27.10
2019-02-03T08:50:11.015Z,28.27
2019-02-03T08:52:51.543Z,23.80
2019-02-03T08:55:31.110Z,23.30
2019-02-03T08:58:11.004Z,23.43
2019-02-03T09:00:51.147Z,24.83
2019-02-03T09:03:31.031Z,21.53
2019-02-03T09:06:10.985Z,19.00
2019-02-03T09:08:51.119Z,23.45
2019-02-03T09:11:34.566Z,19.00
2019-02-03T09:14:14.341Z,18.05
2019-02-03T09:16:54.336Z,19.40
2019-02-03T09:19:34.381Z,17.70
2019-02-03T09:22:13.745Z,21.75
2019-02-03T09:24:53.621Z,15.53
2019-02-03T09:27:33.420Z,15.07
2019-02-03T09:30:13.622Z,15.70
2019-02-03T09:32:54.650Z,14.97
2019-02-03T09:35:33.927Z,15.70
2019-02-03T09:38:13.886Z,15.43
2019-02-03T09:40:59.825Z,15.50
2019-02-03T09:43:34.415Z,13.90
2019-02-03T09:46:14.458Z,13.30
2019-02-03T09:48:54.502Z,10.83
2019-02-03T09:51:34.678Z,11.80
2019-02-03T09:54:13.800Z,11.50
2019-02-03T09:56:53.130Z,10.97
2019-02-03T09:59:33.226Z,10.50
2019-02-03T10:02:12.376Z,10.53
2019-02-03T10:04:51.685Z,10.80
2019-02-03T10:07:30.914Z,11.73
2019-02-03T10:10:10.790Z,12.63
2019-02-03T10:13:10.622Z,13.27
2019-02-03T10:15:50.054Z,11.07
2019-02-03T10:18:30.038Z,11.37
2019-02-03T10:21:09.987Z,9.50
2019-02-03T10:23:53.590Z,9.73
2019-02-03T10:29:16.172Z,10.00
2019-02-03T10:31:55.248Z,11.13
2019-02-03T10:34:35.367Z,12.60
2019-02-03T10:37:15.388Z,19.20
2019-02-03T10:43:19.818Z,11.10
2019-02-03T10:45:59.847Z,9.40
2019-02-03T10:48:39.093Z,10.10
2019-02-03T10:54:45.836Z,9.43
2019-02-03T11:00:32.968Z,11.47
2019-02-03T11:06:57.498Z,10.80
2019-02-03T11:09:57.384Z,9.80
2019-02-03T11:19:22.241Z,7.67
2019-02-03T11:22:02.212Z,8.00
2019-02-03T11:31:51.072Z,7.70
2019-02-03T11:38:11.366Z,7.73
2019-02-03T11:40:50.722Z,7.50
2019-02-03T11:43:30.846Z,10.63
2019-02-03T11:46:11.154Z,7.87
2019-02-03T11:48:50.984Z,8.03
2019-02-03T11:51:30.233Z,10.90
2019-02-03T11:54:09.549Z,8.03
2019-02-03T11:56:49.355Z,8.60
2019-02-03T11:59:29.161Z,8.37
2019-02-03T12:02:09.085Z,9.03
2019-02-03T12:04:48.229Z,10.00
2019-02-03T12:07:27.335Z,8.27
2019-02-03T12:10:07.628Z,9.10
2019-02-03T12:12:47.685Z,9.73
2019-02-03T12:25:38.514Z,8.90
2019-02-03T12:28:18.561Z,7.10
2019-02-03T12:30:58.514Z,6.00
2019-02-03T12:33:38.639Z,11.80
2019-02-03T12:36:18.767Z,10.27
2019-02-03T12:41:40.049Z,8.87
2019-02-03T12:44:20.051Z,6.40
2019-02-03T12:47:03.958Z,7.13
2019-02-03T12:49:44.074Z,7.33
2019-02-03T12:52:24.022Z,7.10
2019-02-03T12:55:03.298Z,6.70
2019-02-03T12:57:46.384Z,7.37
2019-02-03T13:00:25.242Z,8.33
2019-02-03T13:05:48.284Z,7.77
2019-02-03T13:08:27.491Z,7.10
2019-02-03T13:11:11.481Z,8.93
2019-02-03T13:14:10.488Z,7.10
2019-02-03T13:16:50.662Z,6.07
2019-02-03T13:19:30.874Z,7.90
2019-02-03T13:22:10.566Z,6.93
2019-02-03T13:25:10.418Z,6.60
2019-02-03T13:28:09.804Z,6.10
2019-02-03T13:30:53.029Z,7.37
2019-02-03T13:33:32.388Z,7.37
2019-02-03T13:39:37.522Z,6.70
2019-02-03T13:42:16.623Z,6.10
2019-02-03T13:44:56.735Z,6.30
2019-02-03T13:51:16.206Z,7.20
2019-02-03T13:54:16.097Z,6.20
2019-02-03T13:56:55.624Z,6.40
2019-02-03T13:59:35.630Z,5.73
2019-02-03T14:02:14.808Z,6.87
2019-02-03T14:05:14.662Z,7.30
2019-02-03T14:11:19.248Z,6.87
2019-02-03T14:13:59.238Z,6.43
2019-02-03T14:16:38.405Z,7.07
2019-02-03T14:19:17.510Z,6.47
2019-02-03T14:25:36.016Z,7.70
2019-02-03T14:28:15.182Z,7.00
2019-02-03T14:30:55.410Z,7.77
2019-02-03T14:33:35.535Z,9.37
2019-02-03T14:36:34.815Z,8.03
2019-02-03T14:39:14.436Z,8.53
2019-02-03T14:45:29.503Z,7.00
2019-02-03T14:48:09.575Z,7.47
2019-02-03T14:50:49.545Z,6.07
2019-02-03T14:53:29.440Z,5.50
2019-02-03T14:56:09.413Z,6.20
2019-02-03T14:58:49.429Z,6.73
2019-02-03T15:01:29.406Z,5.60
2019-02-03T15:16:58.426Z,5.70
2019-02-03T15:19:38.234Z,5.60
2019-02-03T15:32:26.836Z,5.60
2019-02-03T15:35:06.944Z,4.90
2019-02-03T15:37:47.011Z,5.93
2019-02-03T15:50:38.720Z,6.27
2019-02-03T15:53:38.496Z,7.60
2019-02-03T16:02:08.221Z,9.70
2019-02-03T16:08:06.275Z,12.83
2019-02-03T16:10:46.108Z,10.80
2019-02-03T16:13:45.815Z,14.80
2019-02-03T16:19:34.604Z,8.10
2019-02-03T16:22:34.561Z,8.13
2019-02-03T16:27:55.930Z,9.20
2019-02-03T16:30:36.116Z,8.57
2019-02-03T16:33:15.897Z,8.97
2019-02-03T16:39:17.341Z,7.13
2019-02-03T16:41:56.585Z,7.17
2019-02-03T16:44:40.552Z,10.20
2019-02-03T16:50:37.876Z,7.23
2019-02-03T16:53:17.688Z,7.20
2019-02-03T16:55:56.861Z,7.40
2019-02-03T16:58:35.964Z,7.53
2019-02-03T17:01:15.069Z,8.33
2019-02-03T17:03:55.145Z,10.67
2019-02-03T17:06:35.216Z,8.50
2019-02-03T17:09:14.997Z,9.63
2019-02-03T17:11:54.993Z,8.50
2019-02-03T17:14:34.980Z,8.97
2019-02-03T17:17:14.114Z,10.23
2019-02-03T17:19:54.266Z,10.60
2019-02-03T17:22:34.266Z,11.20
2019-02-03T17:25:17.041Z,10.97
2019-02-03T17:27:55.229Z,9.93
2019-02-03T17:30:34.424Z,10.40
2019-02-03T17:33:13.608Z,11.57
2019-02-03T17:35:54.738Z,11.07
2019-02-03T17:38:33.892Z,11.10
2019-02-03T17:41:14.031Z,10.23
2019-02-03T17:43:54.269Z,10.27
2019-02-03T17:46:34.283Z,9.80
2019-02-03T17:49:16.502Z,10.00
2019-02-03T17:51:54.832Z,10.80
2019-02-03T17:54:34.786Z,10.23
2019-02-03T17:57:14.813Z,11.18
2019-02-03T17:59:54.830Z,9.50
2019-02-03T18:02:34.954Z,10.13
2019-02-03T18:05:14.241Z,10.80
2019-02-03T18:07:54.247Z,8.43
2019-02-03T18:10:33.456Z,8.00
2019-02-03T18:13:12.920Z,9.77
2019-02-03T18:15:53.067Z,7.80
2019-02-03T18:18:33.179Z,9.20
2019-02-03T18:21:13.505Z,8.40
2019-02-03T18:23:53.306Z,7.50
2019-02-03T18:26:33.329Z,8.27
2019-02-03T18:32:17.718Z,9.07
2019-02-03T18:34:57.973Z,10.17
2019-02-03T18:37:37.981Z,8.40
2019-02-03T18:40:17.907Z,9.10
2019-02-03T18:42:57.846Z,9.60
2019-02-03T18:45:37.924Z,8.73
2019-02-03T18:48:17.115Z,8.33
2019-02-03T18:50:57.089Z,8.67
2019-02-03T18:56:20.234Z,8.03
2019-02-03T18:59:00.082Z,8.20
2019-02-03T19:01:39.998Z,9.67
2019-02-03T19:04:19.989Z,9.47
2019-02-03T19:06:59.211Z,7.80
2019-02-03T19:09:39.162Z,7.70
2019-02-03T19:12:19.109Z,8.50
2019-02-03T19:14:59.083Z,9.80
2019-02-03T19:17:38.318Z,8.83
2019-02-03T19:20:17.535Z,8.23
2019-02-03T19:22:56.787Z,8.80
2019-02-03T19:25:36.118Z,8.23
2019-02-03T19:28:15.954Z,8.90
2019-02-03T19:30:56.105Z,12.37
2019-02-03T19:33:36.295Z,11.87
2019-02-03T19:36:16.456Z,10.10
2019-02-03T19:38:56.575Z,11.00
2019-02-03T19:41:36.580Z,12.43
2019-02-03T19:44:16.282Z,13.20
2019-02-03T19:46:55.711Z,11.60
2019-02-03T19:49:46.010Z,15.07
2019-02-03T19:52:16.828Z,15.53
2019-02-03T19:54:56.973Z,15.47
2019-02-03T19:57:36.980Z,16.37
2019-02-03T20:00:16.967Z,14.33
2019-02-03T20:02:56.871Z,14.50
2019-02-03T20:05:36.851Z,11.80
2019-02-03T20:08:16.807Z,14.20
2019-02-03T20:11:15.772Z,13.50
2019-02-03T20:13:55.098Z,11.17
2019-02-03T20:16:35.105Z,11.43
2019-02-03T20:19:14.989Z,11.40
2019-02-03T20:21:55.078Z,11.53
2019-02-03T20:24:34.274Z,11.30
2019-02-03T20:27:14.363Z,12.33
2019-02-03T20:29:54.444Z,10.07
2019-02-03T20:35:43.176Z,10.93
2019-02-03T20:38:23.276Z,9.60
2019-02-03T20:41:03.331Z,9.70
2019-02-03T20:43:43.254Z,10.97
2019-02-03T20:46:23.320Z,9.97
2019-02-03T20:49:03.211Z,9.90
2019-02-03T20:51:43.230Z,9.27
2019-02-03T20:54:22.413Z,9.60
2019-02-03T20:57:01.715Z,9.47
2019-02-03T20:59:41.767Z,8.93
2019-02-03T21:02:21.883Z,10.07
2019-02-03T21:05:01.915Z,11.57
2019-02-03T21:07:41.892Z,11.50
2019-02-03T21:10:22.085Z,11.17
2019-02-03T21:13:10.851Z,10.83
2019-02-03T21:15:44.270Z,10.97
2019-02-03T21:18:24.113Z,10.77
2019-02-03T21:21:04.127Z,11.07
2019-02-03T21:23:44.330Z,11.40
2019-02-03T21:26:24.369Z,10.97
2019-02-03T21:29:04.322Z,10.63
2019-02-03T21:31:44.363Z,11.87
2019-02-03T21:34:24.402Z,11.60
2019-02-03T21:37:08.219Z,12.60
2019-02-03T21:39:48.384Z,11.27
2019-02-03T21:45:43.926Z,11.53
2019-02-03T21:48:14.727Z,12.47
2019-02-03T21:50:55.353Z,13.00
2019-02-03T21:57:14.635Z,12.57
2019-02-03T21:59:54.640Z,12.70
2019-02-03T22:02:34.710Z,14.80
2019-02-03T22:05:14.869Z,15.70
2019-02-03T22:07:53.949Z,14.87
2019-02-03T22:10:33.151Z,15.70
2019-02-03T22:13:13.564Z,14.93
2019-02-03T22:15:55.914Z,16.20
2019-02-03T22:18:35.539Z,14.47
2019-02-03T22:21:15.488Z,15.67
2019-02-03T22:23:55.569Z,14.97
2019-02-03T22:26:35.739Z,14.63
2019-02-03T22:29:15.773Z,16.30
2019-02-03T22:31:55.259Z,14.80
2019-02-03T22:37:43.654Z,14.67
2019-02-03T22:40:23.565Z,13.13
2019-02-03T22:43:03.657Z,14.27
2019-02-03T22:45:43.612Z,13.20
2019-02-03T22:48:22.762Z,12.93
2019-02-03T22:51:02.922Z,13.37
2019-02-03T22:53:42.201Z,12.00
2019-02-03T22:56:22.306Z,13.17
2019-02-03T22:59:01.444Z,13.83
2019-02-03T23:01:41.415Z,13.40
2019-02-03T23:04:20.663Z,12.57
2019-02-03T23:07:00.802Z,13.13
2019-02-03T23:09:40.916Z,13.27
2019-02-03T23:12:20.860Z,14.40
2019-02-03T23:15:00.040Z,11.90
2019-02-03T23:17:40.021Z,12.13
2019-02-03T23:20:19.040Z,13.63
2019-02-03T23:22:58.262Z,14.10
2019-02-03T23:25:37.568Z,12.63
2019-02-03T23:28:21.017Z,12.00
2019-02-03T23:31:00.405Z,13.70
2019-02-03T23:33:40.348Z,11.83
2019-02-03T23:36:20.363Z,12.73
2019-02-03T23:38:59.618Z,12.90
2019-02-03T23:41:39.579Z,12.90
2019-02-03T23:47:27.219Z,12.10
2019-02-03T23:50:07.304Z,12.97
2019-02-03T23:53:07.136Z,13.40
2019-02-03T23:55:46.697Z,12.70
2019-02-03T23:58:25.840Z,14.00
